createdAt,value
2023-04-16T00:00:28.658Z,0
2023-04-16T00:00:58.663Z,0
2023-04-16T00:01:28.679Z,0
2023-04-16T00:01:58.764Z,0
2023-04-16T00:02:28.803Z,0
2023-04-16T00:02:58.828Z,0
2023-04-16T00:03:28.808Z,0
2023-04-16T00:03:58.984Z,0
2023-04-16T00:04:28.757Z,0
2023-04-16T00:04:58.737Z,0
2023-04-16T00:05:28.717Z,0
2023-04-16T00:05:58.733Z,0
2023-04-16T00:06:28.742Z,0
2023-04-16T00:06:58.764Z,0
2023-04-16T00:07:28.755Z,0
2023-04-16T00:07:58.756Z,0
2023-04-16T00:08:28.763Z,0
2023-04-16T00:08:58.765Z,0
2023-04-16T00:09:28.773Z,0
2023-04-16T00:09:58.785Z,0
2023-04-16T00:10:28.789Z,0
2023-04-16T00:10:58.803Z,0
2023-04-16T00:11:28.806Z,0
2023-04-16T00:11:58.801Z,0
2023-04-16T00:12:28.817Z,0
2023-04-16T00:12:58.823Z,0
2023-04-16T00:13:28.823Z,0
2023-04-16T00:13:58.838Z,0
2023-04-16T00:14:28.840Z,0
2023-04-16T00:14:58.872Z,0
2023-04-16T00:15:28.850Z,0
2023-04-16T00:15:58.857Z,0
2023-04-16T00:16:28.890Z,0
2023-04-16T00:16:58.905Z,0
2023-04-16T00:17:28.915Z,0
2023-04-16T00:17:58.982Z,0
2023-04-16T00:18:28.886Z,0
2023-04-16T00:18:58.935Z,0
2023-04-16T00:19:28.906Z,0
2023-04-16T00:19:58.914Z,0
2023-04-16T00:20:28.912Z,0
2023-04-16T00:20:58.936Z,0
2023-04-16T00:21:28.935Z,0
2023-04-16T00:21:58.932Z,0
2023-04-16T00:22:28.947Z,0
2023-04-16T00:22:58.959Z,0
2023-04-16T00:23:28.959Z,0
2023-04-16T00:23:58.973Z,0
2023-04-16T00:24:28.977Z,0
2023-04-16T00:24:58.991Z,0
2023-04-16T00:25:28.990Z,0
2023-04-16T00:25:58.989Z,0
2023-04-16T00:26:29.022Z,0
2023-04-16T00:26:59.010Z,0
2023-04-16T00:27:29.009Z,0
2023-04-16T00:27:59.033Z,0
2023-04-16T00:28:29.021Z,0
2023-04-16T00:28:59.030Z,0
2023-04-16T00:29:29.036Z,0
2023-04-16T00:29:59.046Z,0
2023-04-16T00:30:29.057Z,0
2023-04-16T00:30:59.063Z,0
2023-04-16T00:31:29.120Z,0
2023-04-16T00:31:59.076Z,0
2023-04-16T00:32:29.093Z,0
2023-04-16T00:32:59.096Z,0
2023-04-16T00:33:29.102Z,0
2023-04-16T00:33:59.094Z,0
2023-04-16T00:34:29.102Z,0
2023-04-16T00:34:59.140Z,0
2023-04-16T00:35:29.124Z,0
2023-04-16T00:35:59.121Z,0
2023-04-16T00:36:29.124Z,0
2023-04-16T00:36:59.145Z,0
2023-04-16T00:37:29.139Z,0
2023-04-16T00:37:59.149Z,0
2023-04-16T00:38:29.149Z,0
2023-04-16T00:38:59.175Z,0
2023-04-16T00:39:29.202Z,0
2023-04-16T00:39:59.180Z,0
2023-04-16T00:40:29.192Z,0
2023-04-16T00:40:59.196Z,0
2023-04-16T00:41:29.197Z,0
2023-04-16T00:41:59.207Z,0
2023-04-16T00:42:29.216Z,0
2023-04-16T00:42:59.217Z,0
2023-04-16T00:43:29.220Z,0
2023-04-16T00:43:59.253Z,0
2023-04-16T00:44:29.229Z,0
2023-04-16T00:44:59.246Z,0
2023-04-16T00:45:29.247Z,0
2023-04-16T00:45:59.275Z,0
2023-04-16T00:46:29.280Z,0
2023-04-16T00:46:59.266Z,0
2023-04-16T00:47:29.283Z,0
2023-04-16T00:48:00.518Z,0
2023-04-16T00:48:29.298Z,0
2023-04-16T00:48:59.289Z,0
2023-04-16T00:49:29.305Z,0
2023-04-16T00:49:59.300Z,0
2023-04-16T00:50:29.341Z,0
2023-04-16T00:50:59.321Z,0
2023-04-16T00:51:29.333Z,0
2023-04-16T00:51:59.332Z,0
2023-04-16T00:52:29.347Z,0
2023-04-16T00:52:59.344Z,0
2023-04-16T00:53:29.346Z,0
2023-04-16T00:53:59.374Z,0
2023-04-16T00:54:29.358Z,0
2023-04-16T00:54:59.380Z,0
2023-04-16T00:55:29.379Z,0
2023-04-16T00:55:59.381Z,0
2023-04-16T00:56:29.406Z,0
2023-04-16T00:56:59.405Z,0
2023-04-16T00:57:29.407Z,0
2023-04-16T00:57:59.409Z,0
2023-04-16T00:58:29.417Z,0
2023-04-16T00:58:59.444Z,0
2023-04-16T00:59:29.430Z,0
2023-04-16T00:59:59.444Z,0
2023-04-16T01:00:29.474Z,0
2023-04-16T01:00:59.461Z,0
2023-04-16T01:01:29.473Z,0
2023-04-16T01:01:59.546Z,0
2023-04-16T01:02:29.542Z,0
2023-04-16T01:02:59.570Z,0
2023-04-16T01:03:29.615Z,0
2023-04-16T01:03:59.551Z,0
2023-04-16T01:04:29.511Z,0
2023-04-16T01:04:59.508Z,0
2023-04-16T01:05:29.517Z,0
2023-04-16T01:05:59.534Z,0
2023-04-16T01:06:29.529Z,0
2023-04-16T01:06:59.541Z,0
2023-04-16T01:07:29.545Z,0
2023-04-16T01:07:59.556Z,0
2023-04-16T01:08:29.567Z,0
2023-04-16T01:08:59.571Z,0
2023-04-16T01:09:29.577Z,0
2023-04-16T01:09:59.576Z,0
2023-04-16T01:10:29.585Z,0
2023-04-16T01:10:59.598Z,0
2023-04-16T01:11:29.599Z,0
2023-04-16T01:11:59.615Z,0
2023-04-16T01:12:29.602Z,0
2023-04-16T01:12:59.633Z,0
2023-04-16T01:13:29.625Z,0
2023-04-16T01:13:59.635Z,0
2023-04-16T01:14:29.624Z,0
2023-04-16T01:14:59.641Z,0
2023-04-16T01:15:29.671Z,0
2023-04-16T01:15:59.680Z,0
2023-04-16T01:16:29.728Z,0
2023-04-16T01:16:59.680Z,0
2023-04-16T01:17:29.703Z,0
2023-04-16T01:17:59.761Z,0
2023-04-16T01:18:29.694Z,0
2023-04-16T01:18:59.703Z,0
2023-04-16T01:19:29.704Z,0
2023-04-16T01:19:59.714Z,0
2023-04-16T01:20:29.717Z,0
2023-04-16T01:20:59.732Z,0
2023-04-16T01:21:29.731Z,0
2023-04-16T01:21:59.738Z,0
2023-04-16T01:22:29.742Z,0
2023-04-16T01:22:59.775Z,0
2023-04-16T01:23:29.748Z,0
2023-04-16T01:23:59.767Z,0
2023-04-16T01:24:29.774Z,0
2023-04-16T01:24:59.783Z,0
2023-04-16T01:25:29.797Z,0
2023-04-16T01:25:59.796Z,0
2023-04-16T01:26:29.800Z,0
2023-04-16T01:26:59.828Z,0
2023-04-16T01:27:29.813Z,0
2023-04-16T01:27:59.829Z,0
2023-04-16T01:28:29.825Z,0
2023-04-16T01:28:59.834Z,0
2023-04-16T01:29:29.836Z,0
2023-04-16T01:29:59.847Z,0
2023-04-16T01:30:29.847Z,0
2023-04-16T01:30:59.895Z,0
2023-04-16T01:31:29.910Z,0
2023-04-16T01:31:59.877Z,0
2023-04-16T01:32:29.891Z,0
2023-04-16T01:32:59.937Z,0
2023-04-16T01:33:29.895Z,0
2023-04-16T01:33:59.898Z,0
2023-04-16T01:34:29.912Z,0
2023-04-16T01:34:59.919Z,0
2023-04-16T01:35:29.912Z,0
2023-04-16T01:35:59.931Z,0
2023-04-16T01:36:29.934Z,0
2023-04-16T01:36:59.938Z,0
2023-04-16T01:37:29.944Z,0
2023-04-16T01:37:59.954Z,0
2023-04-16T01:38:29.958Z,0
2023-04-16T01:38:59.968Z,0
2023-04-16T01:39:29.970Z,0
2023-04-16T01:39:59.982Z,0
2023-04-16T01:40:30.015Z,0
2023-04-16T01:40:59.994Z,0
2023-04-16T01:41:30.002Z,0
2023-04-16T01:42:00.008Z,0
2023-04-16T01:42:30.020Z,0
2023-04-16T01:43:00.030Z,0
2023-04-16T01:43:30.022Z,0
2023-04-16T01:44:00.041Z,0
2023-04-16T01:44:30.041Z,0
2023-04-16T01:45:00.048Z,0
2023-04-16T01:45:30.067Z,0
2023-04-16T01:46:00.067Z,0
2023-04-16T01:46:30.094Z,0
2023-04-16T01:47:00.157Z,0
2023-04-16T01:47:30.143Z,0
2023-04-16T01:48:00.145Z,0
2023-04-16T01:48:30.079Z,0
2023-04-16T01:49:00.103Z,0
2023-04-16T01:49:30.105Z,0
2023-04-16T01:50:00.172Z,0
2023-04-16T01:50:30.135Z,0
2023-04-16T01:51:00.138Z,0
2023-04-16T01:51:30.117Z,0
2023-04-16T01:52:00.166Z,0
2023-04-16T01:52:30.135Z,0
2023-04-16T01:53:00.171Z,0
2023-04-16T01:53:30.167Z,0
2023-04-16T01:54:00.201Z,0
2023-04-16T01:54:30.174Z,0
2023-04-16T01:55:00.208Z,0
2023-04-16T01:55:30.189Z,0
2023-04-16T01:56:00.207Z,0
2023-04-16T01:56:30.201Z,0
2023-04-16T01:57:00.221Z,0
2023-04-16T01:57:30.216Z,0
2023-04-16T01:58:00.212Z,0
2023-04-16T01:58:30.228Z,0
2023-04-16T01:59:00.255Z,0
2023-04-16T01:59:30.238Z,0
2023-04-16T02:00:00.319Z,0
2023-04-16T02:00:30.250Z,0
2023-04-16T02:01:00.333Z,0
2023-04-16T02:01:30.297Z,0
2023-04-16T02:02:00.356Z,0
2023-04-16T02:02:30.415Z,0
2023-04-16T02:03:00.482Z,0
2023-04-16T02:03:30.518Z,0
2023-04-16T02:04:00.527Z,0
2023-04-16T02:04:30.310Z,0
2023-04-16T02:05:00.310Z,0
2023-04-16T02:05:30.322Z,0
2023-04-16T02:06:00.381Z,0
2023-04-16T02:06:30.359Z,0
2023-04-16T02:07:30.360Z,0
2023-04-16T02:08:00.353Z,0
2023-04-16T02:08:30.373Z,0
2023-04-16T02:09:00.366Z,0
2023-04-16T02:09:30.388Z,0
2023-04-16T02:10:00.412Z,0
2023-04-16T02:10:30.390Z,0
2023-04-16T02:11:00.389Z,0
2023-04-16T02:11:30.398Z,0
2023-04-16T02:12:00.419Z,0
2023-04-16T02:12:30.416Z,0
2023-04-16T02:13:00.436Z,0
2023-04-16T02:13:30.433Z,0
2023-04-16T02:14:00.465Z,0
2023-04-16T02:14:30.437Z,0
2023-04-16T02:15:00.465Z,0
2023-04-16T02:15:30.463Z,0
2023-04-16T02:16:00.482Z,0
2023-04-16T02:16:30.478Z,0
2023-04-16T02:17:00.475Z,0
2023-04-16T02:17:30.512Z,0
2023-04-16T02:18:00.505Z,0
2023-04-16T02:18:30.484Z,0
2023-04-16T02:19:00.500Z,0
2023-04-16T02:19:30.492Z,0
2023-04-16T02:20:00.528Z,0
2023-04-16T02:20:30.528Z,0
2023-04-16T02:21:00.518Z,0
2023-04-16T02:21:30.538Z,0
2023-04-16T02:22:00.543Z,0
2023-04-16T02:22:30.547Z,0
2023-04-16T02:23:00.542Z,0
2023-04-16T02:23:30.554Z,0
2023-04-16T02:24:00.550Z,0
2023-04-16T02:24:30.575Z,0
2023-04-16T02:25:00.569Z,0
2023-04-16T02:25:30.579Z,0
2023-04-16T02:26:00.588Z,0
2023-04-16T02:26:30.588Z,0
2023-04-16T02:27:00.598Z,0
2023-04-16T02:27:30.614Z,0
2023-04-16T02:28:00.654Z,0
2023-04-16T02:28:30.629Z,0
2023-04-16T02:29:00.655Z,0
2023-04-16T02:29:30.626Z,0
2023-04-16T02:30:00.646Z,0
2023-04-16T02:30:30.636Z,0
2023-04-16T02:31:00.649Z,0
2023-04-16T02:31:30.701Z,0
2023-04-16T02:32:00.696Z,0
2023-04-16T02:32:30.672Z,0
2023-04-16T02:33:00.706Z,0
2023-04-16T02:33:30.699Z,0
2023-04-16T02:34:00.714Z,0
2023-04-16T02:34:30.695Z,0
2023-04-16T02:35:00.700Z,0
2023-04-16T02:35:30.728Z,0
2023-04-16T02:36:00.715Z,0
2023-04-16T02:36:30.872Z,0
2023-04-16T02:37:00.729Z,0
2023-04-16T02:37:30.742Z,0
2023-04-16T02:38:00.742Z,0
2023-04-16T02:38:30.767Z,0
2023-04-16T02:39:00.773Z,0
2023-04-16T02:39:30.770Z,0
2023-04-16T02:40:00.774Z,0
2023-04-16T02:40:30.784Z,0
2023-04-16T02:41:00.797Z,0
2023-04-16T02:41:30.778Z,0
2023-04-16T02:42:00.807Z,0
2023-04-16T02:42:30.825Z,0
2023-04-16T02:43:00.824Z,0
2023-04-16T02:43:30.817Z,0
2023-04-16T02:44:00.838Z,0
2023-04-16T02:44:30.833Z,0
2023-04-16T02:45:00.842Z,0
2023-04-16T02:45:30.840Z,0
2023-04-16T02:46:00.941Z,0
2023-04-16T02:46:30.932Z,0
2023-04-16T02:47:00.891Z,0
2023-04-16T02:47:30.891Z,0
2023-04-16T02:48:00.941Z,0
2023-04-16T02:48:30.875Z,0
2023-04-16T02:49:00.891Z,0
2023-04-16T02:49:30.908Z,0
2023-04-16T02:50:00.902Z,0
2023-04-16T02:50:30.914Z,0
2023-04-16T02:51:00.924Z,0
2023-04-16T02:51:30.936Z,0
2023-04-16T02:52:00.946Z,0
2023-04-16T02:52:30.940Z,0
2023-04-16T02:53:00.944Z,0
2023-04-16T02:53:30.977Z,0
2023-04-16T02:54:00.974Z,0
2023-04-16T02:54:30.964Z,0
2023-04-16T02:55:00.990Z,0
2023-04-16T02:55:30.987Z,0
2023-04-16T02:56:00.984Z,0
2023-04-16T02:56:30.986Z,0
2023-04-16T02:57:01.002Z,0
2023-04-16T02:57:31.008Z,0
2023-04-16T02:58:01.023Z,0
2023-04-16T02:58:31.019Z,0
2023-04-16T02:59:01.028Z,0
2023-04-16T02:59:31.022Z,0
2023-04-16T03:00:01.034Z,0
2023-04-16T03:00:31.052Z,0
2023-04-16T03:01:01.082Z,0
2023-04-16T03:01:31.086Z,0
2023-04-16T03:02:01.111Z,0
2023-04-16T03:02:31.237Z,0
2023-04-16T03:03:01.086Z,0
2023-04-16T03:03:31.078Z,0
2023-04-16T03:04:01.118Z,0
2023-04-16T03:04:31.135Z,0
2023-04-16T03:05:01.105Z,0
2023-04-16T03:05:31.116Z,0
2023-04-16T03:06:01.126Z,0
2023-04-16T03:06:31.137Z,0
2023-04-16T03:07:01.174Z,0
2023-04-16T03:07:31.170Z,0
2023-04-16T03:08:01.150Z,0
2023-04-16T03:08:31.163Z,0
2023-04-16T03:09:01.176Z,0
2023-04-16T03:09:31.165Z,0
2023-04-16T03:10:01.172Z,0
2023-04-16T03:10:31.202Z,0
2023-04-16T03:11:01.193Z,0
2023-04-16T03:11:31.187Z,0
2023-04-16T03:12:01.200Z,0
2023-04-16T03:12:31.200Z,0
2023-04-16T03:13:01.214Z,0
2023-04-16T03:13:31.204Z,0
2023-04-16T03:14:01.223Z,0
2023-04-16T03:14:31.231Z,0
2023-04-16T03:15:01.250Z,0
2023-04-16T03:15:31.270Z,0
2023-04-16T03:16:31.258Z,0
2023-04-16T03:17:01.268Z,0
2023-04-16T03:17:31.311Z,0
2023-04-16T03:18:01.300Z,0
2023-04-16T03:18:31.288Z,0
2023-04-16T03:19:01.306Z,0
2023-04-16T03:19:31.330Z,0
2023-04-16T03:20:01.308Z,0
2023-04-16T03:20:31.322Z,0
2023-04-16T03:21:01.325Z,0
2023-04-16T03:21:31.328Z,0
2023-04-16T03:22:01.353Z,0
2023-04-16T03:22:31.352Z,0
2023-04-16T03:23:01.340Z,0
2023-04-16T03:23:31.355Z,0
2023-04-16T03:24:01.364Z,0
2023-04-16T03:24:31.378Z,0
2023-04-16T03:25:01.371Z,0
2023-04-16T03:25:31.387Z,0
2023-04-16T03:26:01.383Z,0
2023-04-16T03:26:31.408Z,0
2023-04-16T03:27:01.408Z,0
2023-04-16T03:27:31.403Z,0
2023-04-16T03:28:01.417Z,0
2023-04-16T03:28:31.418Z,0
2023-04-16T03:29:01.429Z,0
2023-04-16T03:29:31.445Z,0
2023-04-16T03:30:01.464Z,0
2023-04-16T03:30:31.466Z,0
2023-04-16T03:31:01.532Z,0
2023-04-16T03:31:31.528Z,0
2023-04-16T03:32:01.473Z,0
2023-04-16T03:32:31.488Z,0
2023-04-16T03:33:01.565Z,0
2023-04-16T03:33:31.487Z,0
2023-04-16T03:34:01.500Z,0
2023-04-16T03:34:31.510Z,0
2023-04-16T03:35:01.513Z,0
2023-04-16T03:35:31.510Z,0
2023-04-16T03:36:01.526Z,0
2023-04-16T03:36:31.528Z,0
2023-04-16T03:37:01.542Z,0
2023-04-16T03:37:31.546Z,0
2023-04-16T03:38:01.542Z,0
2023-04-16T03:38:31.562Z,0
2023-04-16T03:39:01.687Z,0
2023-04-16T03:39:31.583Z,0
2023-04-16T03:40:01.577Z,0
2023-04-16T03:40:31.584Z,0
2023-04-16T03:41:01.585Z,0
2023-04-16T03:41:31.594Z,0
2023-04-16T03:42:01.612Z,0
2023-04-16T03:42:31.617Z,0
2023-04-16T03:43:01.617Z,0
2023-04-16T03:43:31.627Z,0
2023-04-16T03:44:01.640Z,0
2023-04-16T03:44:31.633Z,0
2023-04-16T03:45:01.658Z,0
2023-04-16T03:45:31.653Z,0
2023-04-16T03:46:01.705Z,0
2023-04-16T03:46:31.700Z,0
2023-04-16T03:47:01.671Z,0
2023-04-16T03:47:31.701Z,0
2023-04-16T03:48:01.701Z,0
2023-04-16T03:48:31.710Z,0
2023-04-16T03:49:31.706Z,0
2023-04-16T03:50:01.707Z,0
2023-04-16T03:50:31.713Z,0
2023-04-16T03:51:01.716Z,0
2023-04-16T03:51:31.728Z,0
2023-04-16T03:52:01.754Z,0
2023-04-16T03:52:31.761Z,0
2023-04-16T03:53:01.743Z,0
2023-04-16T03:53:31.765Z,0
2023-04-16T03:54:01.777Z,0
2023-04-16T03:54:31.772Z,0
2023-04-16T03:55:01.782Z,0
2023-04-16T03:55:31.771Z,0
2023-04-16T03:56:01.795Z,0
2023-04-16T03:56:31.789Z,0
2023-04-16T03:57:01.803Z,0
2023-04-16T03:57:31.808Z,0
2023-04-16T03:58:01.821Z,0
2023-04-16T03:58:31.819Z,0
2023-04-16T03:59:01.827Z,0
2023-04-16T03:59:31.849Z,0
2023-04-16T04:00:01.852Z,0
2023-04-16T04:00:31.841Z,0
2023-04-16T04:01:01.866Z,0
2023-04-16T04:01:31.864Z,0
2023-04-16T04:02:01.922Z,0
2023-04-16T04:02:31.929Z,0
2023-04-16T04:03:02.028Z,0
2023-04-16T04:03:32.047Z,0
2023-04-16T04:04:02.032Z,0
2023-04-16T04:04:31.948Z,0
2023-04-16T04:05:01.943Z,0
2023-04-16T04:05:31.927Z,0
2023-04-16T04:06:01.936Z,0
2023-04-16T04:06:31.926Z,0
2023-04-16T04:07:01.941Z,0
2023-04-16T04:07:31.943Z,0
2023-04-16T04:08:01.980Z,0
2023-04-16T04:08:31.953Z,0
2023-04-16T04:09:02.042Z,0
2023-04-16T04:09:31.966Z,0
2023-04-16T04:10:01.980Z,0
2023-04-16T04:10:31.988Z,0
2023-04-16T04:11:01.987Z,0
2023-04-16T04:11:32.006Z,0
2023-04-16T04:12:02.028Z,0
2023-04-16T04:12:32.003Z,0
2023-04-16T04:13:02.033Z,0
2023-04-16T04:13:32.030Z,0
2023-04-16T04:14:02.032Z,0
2023-04-16T04:14:32.031Z,0
2023-04-16T04:15:02.040Z,0
2023-04-16T04:15:32.058Z,0
2023-04-16T04:16:02.128Z,0
2023-04-16T04:16:32.095Z,0
2023-04-16T04:17:02.088Z,0
2023-04-16T04:17:32.119Z,0
2023-04-16T04:18:02.119Z,0
2023-04-16T04:18:32.109Z,0
2023-04-16T04:19:02.116Z,0
2023-04-16T04:19:32.107Z,0
2023-04-16T04:20:02.249Z,0
2023-04-16T04:20:32.121Z,0
2023-04-16T04:21:02.140Z,0
2023-04-16T04:21:32.129Z,0
2023-04-16T04:22:02.152Z,0
2023-04-16T04:22:32.144Z,0
2023-04-16T04:23:02.167Z,0
2023-04-16T04:23:32.157Z,0
2023-04-16T04:24:02.155Z,0
2023-04-16T04:24:32.174Z,0
2023-04-16T04:25:02.194Z,0
2023-04-16T04:25:32.180Z,0
2023-04-16T04:26:02.236Z,0
2023-04-16T04:26:32.261Z,0
2023-04-16T04:27:02.225Z,0
2023-04-16T04:27:32.206Z,0
2023-04-16T04:28:02.237Z,0
2023-04-16T04:28:32.223Z,0
2023-04-16T04:29:02.226Z,0
2023-04-16T04:29:32.243Z,0
2023-04-16T04:30:02.248Z,0
2023-04-16T04:30:32.249Z,0
2023-04-16T04:31:02.264Z,0
2023-04-16T04:31:32.303Z,0
2023-04-16T04:32:02.329Z,0
2023-04-16T04:32:32.334Z,0
2023-04-16T04:33:02.355Z,0
2023-04-16T04:33:32.297Z,0
2023-04-16T04:34:02.310Z,0
2023-04-16T04:34:32.310Z,0
2023-04-16T04:35:02.308Z,0
2023-04-16T04:35:32.341Z,0
2023-04-16T04:36:02.319Z,0
2023-04-16T04:36:32.329Z,0
2023-04-16T04:37:02.342Z,0
2023-04-16T04:37:32.350Z,0
2023-04-16T04:38:02.694Z,0
2023-04-16T04:38:32.351Z,0
2023-04-16T04:39:02.361Z,0
2023-04-16T04:39:32.370Z,0
2023-04-16T04:40:02.396Z,0
2023-04-16T04:40:32.380Z,0
2023-04-16T04:41:02.396Z,0
2023-04-16T04:41:32.402Z,0
2023-04-16T04:42:02.403Z,0
2023-04-16T04:42:32.423Z,0
2023-04-16T04:43:02.422Z,0
2023-04-16T04:43:32.414Z,0
2023-04-16T04:44:02.429Z,0
2023-04-16T04:44:32.443Z,0
2023-04-16T04:45:02.443Z,0
2023-04-16T04:45:32.490Z,0
2023-04-16T04:46:02.475Z,0
2023-04-16T04:46:32.465Z,0
2023-04-16T04:47:02.474Z,0
2023-04-16T04:47:32.515Z,0
2023-04-16T04:48:02.557Z,0
2023-04-16T04:48:32.492Z,0
2023-04-16T04:49:02.496Z,0
2023-04-16T04:49:32.501Z,0
2023-04-16T04:50:02.547Z,0
2023-04-16T04:50:32.508Z,0
2023-04-16T04:51:04.270Z,0
2023-04-16T04:51:32.529Z,0
2023-04-16T04:52:02.547Z,0
2023-04-16T04:52:32.576Z,0
2023-04-16T04:53:02.562Z,0
2023-04-16T04:53:32.561Z,0
2023-04-16T04:54:02.555Z,0
2023-04-16T04:54:32.576Z,0
2023-04-16T04:55:02.577Z,0
2023-04-16T04:55:32.587Z,0
2023-04-16T04:56:11.561Z,0
2023-04-16T04:56:32.600Z,0.33
2023-04-16T04:57:02.616Z,0.36
2023-04-16T04:57:32.611Z,0.69
2023-04-16T04:58:02.603Z,0.42
2023-04-16T04:58:32.625Z,0.46
2023-04-16T04:59:02.668Z,0.91
2023-04-16T04:59:19.221Z,1
2023-04-16T04:59:32.648Z,0.93
2023-04-16T05:00:02.639Z,0.61
2023-04-16T05:00:32.662Z,0.9
2023-04-16T05:01:02.670Z,0.96
2023-04-16T05:01:32.733Z,0.97
2023-04-16T05:01:43.231Z,2.88
2023-04-16T05:02:02.672Z,1.04
2023-04-16T05:02:08.289Z,2.93
2023-04-16T05:02:13.242Z,0.53
2023-04-16T05:02:32.767Z,0.56
2023-04-16T05:03:02.735Z,0.58
2023-04-16T05:03:32.736Z,0.84
2023-04-16T05:04:02.753Z,0.79
2023-04-16T05:04:32.723Z,0.77
2023-04-16T05:05:02.720Z,0.86
2023-04-16T05:05:32.742Z,0.85
2023-04-16T05:06:02.714Z,0.86
2023-04-16T05:06:32.738Z,0.53
2023-04-16T05:07:02.739Z,0.91
2023-04-16T05:07:32.756Z,0.98
2023-04-16T05:07:52.242Z,2.16
2023-04-16T05:08:02.742Z,1.1
2023-04-16T05:08:20.235Z,5.22
2023-04-16T05:08:32.768Z,1.51
2023-04-16T05:08:52.240Z,1.38
2023-04-16T05:09:02.767Z,5.93
2023-04-16T05:09:22.235Z,5.89
2023-04-16T05:09:32.769Z,1.49
2023-04-16T05:09:55.240Z,1.53
2023-04-16T05:10:02.779Z,1.74
2023-04-16T05:10:23.240Z,5.5
2023-04-16T05:10:32.781Z,4.41
2023-04-16T05:10:55.250Z,4.66
2023-04-16T05:11:02.800Z,2.33
2023-04-16T05:11:08.251Z,6.72
2023-04-16T05:11:26.249Z,2.4
2023-04-16T05:11:32.798Z,4.82
2023-04-16T05:12:02.806Z,4.73
2023-04-16T05:12:30.243Z,2.65
2023-04-16T05:12:32.809Z,2.48
2023-04-16T05:13:02.256Z,2.54
2023-04-16T05:13:02.818Z,2.54
2023-04-16T05:13:14.241Z,2.34
2023-04-16T05:13:32.263Z,4.32
2023-04-16T05:13:32.824Z,4.32
2023-04-16T05:14:02.842Z,4.7
2023-04-16T05:14:19.261Z,5.15
2023-04-16T05:14:32.841Z,4.18
2023-04-16T05:14:37.261Z,3.92
2023-04-16T05:15:02.876Z,5.43
2023-04-16T05:15:32.860Z,3.46
2023-04-16T05:15:43.249Z,4.82
2023-04-16T05:16:02.876Z,3.27
2023-04-16T05:16:04.268Z,4.59
2023-04-16T05:16:28.285Z,2.36
2023-04-16T05:16:32.882Z,2.96
2023-04-16T05:16:46.289Z,4.99
2023-04-16T05:17:10.253Z,4.36
2023-04-16T05:17:29.286Z,3.1
2023-04-16T05:17:32.914Z,2.42
2023-04-16T05:17:52.324Z,4.19
2023-04-16T05:18:14.263Z,3.77
2023-04-16T05:18:32.892Z,3.03
2023-04-16T05:18:34.257Z,4.69
2023-04-16T05:19:16.271Z,4.07
2023-04-16T05:19:32.903Z,2.82
2023-04-16T05:19:37.251Z,4.98
2023-04-16T05:19:55.270Z,4.47
2023-04-16T05:20:17.259Z,4.73
2023-04-16T05:20:32.917Z,4.33
2023-04-16T05:20:41.263Z,2.82
2023-04-16T05:20:59.261Z,4.59
2023-04-16T05:21:32.936Z,4.23
2023-04-16T05:21:41.280Z,4.31
2023-04-16T05:22:18.259Z,3.48
2023-04-16T05:22:32.942Z,3.4
2023-04-16T05:22:45.274Z,3.51
2023-04-16T05:23:08.278Z,5.34
2023-04-16T05:23:25.268Z,2.43
2023-04-16T05:23:32.964Z,2.72
2023-04-16T05:23:47.012Z,4.28
2023-04-16T05:24:02.968Z,4.3
2023-04-16T05:24:32.982Z,4.21
2023-04-16T05:24:37.273Z,4.95
2023-04-16T05:24:56.280Z,6.09
2023-04-16T05:25:02.980Z,3.95
2023-04-16T05:25:14.277Z,4.56
2023-04-16T05:25:32.984Z,5.74
2023-04-16T05:26:03.004Z,5.59
2023-04-16T05:26:22.276Z,4.27
2023-04-16T05:26:33.010Z,5.88
2023-04-16T05:27:03.016Z,6.1
2023-04-16T05:27:33.020Z,6.11
2023-04-16T05:28:03.036Z,6
2023-04-16T05:28:33.032Z,6.42
2023-04-16T05:29:03.042Z,6.69
2023-04-16T05:29:07.384Z,6.95
2023-04-16T05:29:33.091Z,6.95
2023-04-16T05:30:03.060Z,7.41
2023-04-16T05:30:33.069Z,7.59
2023-04-16T05:31:01.376Z,8
2023-04-16T05:31:03.128Z,7.71
2023-04-16T05:31:33.073Z,7.03
2023-04-16T05:31:38.305Z,4.8
2023-04-16T05:32:03.079Z,7.04
2023-04-16T05:32:03.302Z,7.04
2023-04-16T05:32:22.300Z,6.46
2023-04-16T05:32:33.102Z,2.97
2023-04-16T05:32:40.286Z,3.86
2023-04-16T05:33:03.102Z,5.51
2023-04-16T05:33:05.289Z,5.25
2023-04-16T05:33:23.281Z,6.17
2023-04-16T05:33:33.102Z,3.64
2023-04-16T05:33:43.283Z,7.9
2023-04-16T05:34:03.112Z,6.2
2023-04-16T05:34:24.287Z,6.26
2023-04-16T05:34:33.124Z,6.87
2023-04-16T05:34:47.292Z,4.92
2023-04-16T05:35:03.131Z,6.18
2023-04-16T05:35:17.416Z,6.13
2023-04-16T05:35:33.142Z,7.75
2023-04-16T05:36:03.150Z,7.42
2023-04-16T05:36:36.289Z,6.47
2023-04-16T05:37:03.158Z,6.72
2023-04-16T05:37:22.292Z,5.61
2023-04-16T05:38:03.165Z,6.51
2023-04-16T05:38:33.188Z,7.07
2023-04-16T05:38:37.299Z,7.77
2023-04-16T05:39:03.170Z,6.68
2023-04-16T05:39:35.306Z,8.49
2023-04-16T05:39:40.297Z,7.2
2023-04-16T05:40:03.196Z,6.64
2023-04-16T05:40:40.297Z,8.01
2023-04-16T05:40:53.304Z,9.08
2023-04-16T05:42:03.229Z,8.42
2023-04-16T05:42:19.299Z,9.01
2023-04-16T05:43:03.231Z,7.18
2023-04-16T05:43:04.308Z,8.87
2023-04-16T05:43:23.302Z,7.01
2023-04-16T05:43:31.301Z,8.47
2023-04-16T05:44:03.242Z,7.97
2023-04-16T05:44:33.260Z,8.11
2023-04-16T05:44:52.318Z,9.27
2023-04-16T05:45:03.310Z,9.78
2023-04-16T05:45:13.320Z,10.43
2023-04-16T05:46:03.307Z,10.4
2023-04-16T05:46:33.296Z,10.36
2023-04-16T05:47:03.288Z,10.7
2023-04-16T05:47:33.318Z,10.67
2023-04-16T05:48:03.308Z,10.86
2023-04-16T05:48:33.311Z,10.8
2023-04-16T05:49:03.320Z,11.21
2023-04-16T05:49:07.510Z,11.48
2023-04-16T05:49:33.322Z,11.91
2023-04-16T05:50:03.341Z,12.75
2023-04-16T05:50:11.309Z,11.6
2023-04-16T05:50:33.350Z,12.09
2023-04-16T05:51:03.360Z,13.26
2023-04-16T05:51:33.345Z,12.52
2023-04-16T05:51:35.320Z,12.1
2023-04-16T05:52:03.353Z,11.79
2023-04-16T05:52:33.367Z,11.74
2023-04-16T05:53:03.377Z,11.7
2023-04-16T05:53:33.381Z,11.73
2023-04-16T05:54:33.403Z,12.03
2023-04-16T05:55:04.423Z,12.36
2023-04-16T05:55:04.705Z,9.94
2023-04-16T05:56:26.346Z,10.54
2023-04-16T05:56:31.338Z,14.54
2023-04-16T05:56:33.414Z,11.5
2023-04-16T05:56:37.323Z,17.27
2023-04-16T05:57:33.436Z,18.1
2023-04-16T05:57:49.337Z,18.39
2023-04-16T05:57:54.335Z,16.9
2023-04-16T05:59:03.452Z,18.24
2023-04-16T05:59:33.462Z,18.78
2023-04-16T06:00:03.468Z,18.81
2023-04-16T06:00:04.397Z,19.77
2023-04-16T06:00:33.467Z,20.68
2023-04-16T06:01:03.482Z,19.58
2023-04-16T06:01:07.338Z,20.84
2023-04-16T06:01:34.442Z,19.7
2023-04-16T06:02:03.528Z,19.25
2023-04-16T06:02:33.691Z,18.89
2023-04-16T06:02:39.431Z,18.74
2023-04-16T06:03:33.583Z,17.74
2023-04-16T06:03:42.391Z,18.77
2023-04-16T06:04:03.730Z,19.29
2023-04-16T06:04:33.532Z,20.02
2023-04-16T06:05:03.550Z,20.14
2023-04-16T06:05:33.569Z,19.7
2023-04-16T06:06:03.584Z,19.01
2023-04-16T06:06:06.351Z,18.87
2023-04-16T06:06:33.563Z,17.27
2023-04-16T06:06:51.349Z,18.46
2023-04-16T06:07:03.568Z,18.6
2023-04-16T06:07:12.346Z,19.49
2023-04-16T06:07:33.590Z,19.02
2023-04-16T06:07:57.352Z,18.13
2023-04-16T06:08:03.578Z,19.33
2023-04-16T06:08:33.619Z,19.59
2023-04-16T06:09:03.596Z,20.05
2023-04-16T06:09:17.353Z,20.39
2023-04-16T06:10:00.368Z,19.28
2023-04-16T06:10:03.617Z,19.39
2023-04-16T06:10:33.617Z,19.77
2023-04-16T06:11:03.635Z,19.98
2023-04-16T06:11:34.544Z,19.92
2023-04-16T06:12:03.654Z,19.84
2023-04-16T06:12:33.648Z,19.98
2023-04-16T06:13:03.666Z,19.53
2023-04-16T06:13:33.663Z,19.25
2023-04-16T06:14:01.369Z,21.07
2023-04-16T06:14:33.675Z,20.22
2023-04-16T06:14:46.384Z,20.06
2023-04-16T06:15:03.695Z,20
2023-04-16T06:15:33.685Z,19.91
2023-04-16T06:16:03.736Z,20.83
2023-04-16T06:16:16.385Z,21.16
2023-04-16T06:16:33.786Z,21.04
2023-04-16T06:17:03.710Z,22.07
2023-04-16T06:17:33.739Z,21.81
2023-04-16T06:18:03.794Z,20.49
2023-04-16T06:18:33.730Z,20.98
2023-04-16T06:19:04.303Z,21.78
2023-04-16T06:19:33.757Z,21.86
2023-04-16T06:20:03.799Z,22.17
2023-04-16T06:20:06.363Z,22.37
2023-04-16T06:20:33.761Z,23.22
2023-04-16T06:20:49.390Z,23.56
2023-04-16T06:21:03.757Z,23.44
2023-04-16T06:21:19.376Z,22.52
2023-04-16T06:21:33.781Z,21.82
2023-04-16T06:22:03.382Z,20.32
2023-04-16T06:22:03.781Z,20.32
2023-04-16T06:22:33.786Z,21.11
2023-04-16T06:23:03.805Z,20.32
2023-04-16T06:23:33.802Z,19.49
2023-04-16T06:23:37.381Z,19.27
2023-04-16T06:24:03.833Z,19.05
2023-04-16T06:24:33.814Z,19.55
2023-04-16T06:24:58.409Z,20.31
2023-04-16T06:25:33.831Z,20.28
2023-04-16T06:26:03.836Z,19.67
2023-04-16T06:26:33.837Z,19.93
2023-04-16T06:27:03.852Z,19.62
2023-04-16T06:27:22.396Z,21.68
2023-04-16T06:27:33.852Z,20.55
2023-04-16T06:28:03.886Z,21.25
2023-04-16T06:28:12.398Z,16.1
2023-04-16T06:28:33.871Z,21.41
2023-04-16T06:28:36.403Z,20.65
2023-04-16T06:29:03.877Z,22.38
2023-04-16T06:29:40.901Z,22.14
2023-04-16T06:30:03.907Z,22.09
2023-04-16T06:30:33.904Z,21.95
2023-04-16T06:30:57.399Z,21.42
2023-04-16T06:31:33.946Z,21.6
2023-04-16T06:31:54.454Z,22.66